createdAt,value
2022-11-06T00:00:40.698Z,15.80
2022-11-06T00:03:09.622Z,15.76
2022-11-06T00:05:59.210Z,15.76
2022-11-06T00:08:30.130Z,15.61
2022-11-06T00:10:58.792Z,15.58
2022-11-06T00:13:27.118Z,15.73
2022-11-06T00:15:56.848Z,15.72
2022-11-06T00:18:28.332Z,15.87
2022-11-06T00:20:56.732Z,15.80
2022-11-06T00:23:25.236Z,15.77
2022-11-06T00:25:56.729Z,15.80
2022-11-06T00:28:25.315Z,15.85
2022-11-06T00:31:03.098Z,15.51
2022-11-06T00:33:31.558Z,15.75
2022-11-06T00:36:00.000Z,15.71
2022-11-06T00:38:28.254Z,15.67
2022-11-06T00:40:56.798Z,15.68
2022-11-06T00:43:25.168Z,15.80
2022-11-06T00:45:53.371Z,15.78
2022-11-06T00:48:23.074Z,15.73
2022-11-06T00:50:51.447Z,15.74
2022-11-06T00:53:19.760Z,15.82
2022-11-06T00:55:48.106Z,15.89
2022-11-06T00:58:16.377Z,15.85
2022-11-06T01:00:44.628Z,15.75
2022-11-06T01:03:12.964Z,15.97
2022-11-06T01:05:42.703Z,16.03
2022-11-06T01:08:11.354Z,15.85
2022-11-06T01:10:39.962Z,15.71
2022-11-06T01:13:08.223Z,15.89
2022-11-06T01:15:37.761Z,15.88
2022-11-06T01:18:06.284Z,15.80
2022-11-06T01:20:34.576Z,15.71
2022-11-06T01:23:04.234Z,15.55
2022-11-06T01:25:32.545Z,15.32
2022-11-06T01:28:00.772Z,15.33
2022-11-06T01:30:29.011Z,15.28
2022-11-06T01:32:57.284Z,15.38
2022-11-06T01:35:25.746Z,15.40
2022-11-06T01:37:53.990Z,15.10
2022-11-06T01:40:23.628Z,15.00
2022-11-06T01:42:51.989Z,15.14
2022-11-06T01:45:36.627Z,15.01
2022-11-06T01:48:05.410Z,14.80
2022-11-06T01:50:34.521Z,14.92
2022-11-06T01:53:03.252Z,14.82
2022-11-06T01:55:37.064Z,14.91
2022-11-06T01:58:07.520Z,14.88
2022-11-06T02:00:36.072Z,14.89
2022-11-06T02:03:05.266Z,14.87
2022-11-06T02:05:33.788Z,14.82
2022-11-06T02:08:02.895Z,14.92
2022-11-06T02:10:33.096Z,14.77
2022-11-06T02:13:23.525Z,14.89
2022-11-06T02:15:59.611Z,14.82
2022-11-06T02:18:52.136Z,14.89
2022-11-06T02:21:51.360Z,14.87
2022-11-06T02:24:45.767Z,14.79
2022-11-06T02:27:17.253Z,14.83
2022-11-06T02:29:53.782Z,14.66
2022-11-06T02:32:28.071Z,14.69
2022-11-06T02:34:57.876Z,14.84
2022-11-06T02:37:30.934Z,14.96
2022-11-06T02:40:02.548Z,14.97
2022-11-06T02:42:35.887Z,14.74
2022-11-06T02:45:06.674Z,14.97
2022-11-06T02:47:35.877Z,14.97
2022-11-06T02:50:08.205Z,14.95
2022-11-06T02:52:41.135Z,14.94
2022-11-06T02:55:13.430Z,14.95
2022-11-06T02:57:50.722Z,14.98
2022-11-06T03:00:19.778Z,14.81
2022-11-06T03:02:52.531Z,14.66
2022-11-06T03:05:25.002Z,14.81
2022-11-06T03:07:58.227Z,14.84
2022-11-06T03:10:31.919Z,14.84
2022-11-06T03:13:06.869Z,14.77
2022-11-06T03:15:40.081Z,14.84
2022-11-06T03:18:15.011Z,14.43
2022-11-06T03:20:52.031Z,14.71
2022-11-06T03:23:24.320Z,14.50
2022-11-06T03:25:55.905Z,14.68
2022-11-06T03:28:30.714Z,14.72
2022-11-06T03:31:03.342Z,14.75
2022-11-06T03:33:35.491Z,14.59
2022-11-06T03:36:07.164Z,14.70
2022-11-06T03:38:42.217Z,14.60
2022-11-06T03:41:14.330Z,14.60
2022-11-06T03:43:46.585Z,14.71
2022-11-06T03:46:19.452Z,14.69
2022-11-06T03:48:51.624Z,14.71
2022-11-06T03:51:23.268Z,14.71
2022-11-06T03:53:53.483Z,14.53
2022-11-06T03:56:26.516Z,14.56
2022-11-06T03:58:57.780Z,14.51
2022-11-06T04:01:31.046Z,14.44
2022-11-06T04:04:02.775Z,14.52
2022-11-06T04:06:37.445Z,14.52
2022-11-06T04:09:26.283Z,14.51
2022-11-06T04:12:12.480Z,14.36
2022-11-06T04:14:46.449Z,14.43
2022-11-06T04:17:16.261Z,14.38
2022-11-06T04:19:49.868Z,14.45
2022-11-06T04:22:29.569Z,14.37
2022-11-06T04:25:28.802Z,14.38
2022-11-06T04:28:08.549Z,14.34
2022-11-06T04:30:45.169Z,14.38
2022-11-06T04:33:19.276Z,14.49
2022-11-06T04:35:59.949Z,14.42
2022-11-06T04:38:36.714Z,14.44
2022-11-06T04:41:13.902Z,14.44
2022-11-06T04:43:47.332Z,14.39
2022-11-06T04:46:22.117Z,14.40
2022-11-06T04:48:51.182Z,14.47
2022-11-06T04:51:23.686Z,14.48
2022-11-06T04:53:53.326Z,14.54
2022-11-06T04:56:32.870Z,14.47
2022-11-06T04:59:02.899Z,14.38
2022-11-06T05:01:32.488Z,14.28
2022-11-06T05:04:01.048Z,14.24
2022-11-06T05:06:30.294Z,14.50
2022-11-06T05:08:59.077Z,14.53
2022-11-06T05:11:27.168Z,14.35
2022-11-06T05:13:55.229Z,14.49
2022-11-06T05:16:23.243Z,14.47
2022-11-06T05:18:52.700Z,14.64
2022-11-06T05:21:37.952Z,14.60
2022-11-06T05:24:06.828Z,14.51
2022-11-06T05:26:34.935Z,14.67
2022-11-06T05:29:03.175Z,14.69
2022-11-06T05:31:31.163Z,14.54
2022-11-06T05:34:01.280Z,14.63
2022-11-06T05:36:29.360Z,14.77
2022-11-06T05:38:57.367Z,14.65
2022-11-06T05:41:25.493Z,14.56
2022-11-06T05:43:53.672Z,14.68
2022-11-06T05:46:47.073Z,14.71
2022-11-06T05:49:11.582Z,14.88
2022-11-06T05:51:39.702Z,14.88
2022-11-06T05:54:07.707Z,14.84
2022-11-06T05:56:35.752Z,14.88
2022-11-06T05:59:03.814Z,14.94
2022-11-06T06:01:31.991Z,14.94
2022-11-06T06:04:00.220Z,15.08
2022-11-06T06:06:29.855Z,15.04
2022-11-06T06:08:57.889Z,15.03
2022-11-06T06:11:27.036Z,14.99
2022-11-06T06:13:55.149Z,15.04
2022-11-06T06:16:23.171Z,14.97
2022-11-06T06:18:51.974Z,15.04
2022-11-06T06:21:20.114Z,14.88
2022-11-06T06:23:49.522Z,15.01
2022-11-06T06:26:17.609Z,15.02
2022-11-06T06:28:45.644Z,14.95
2022-11-06T06:31:13.745Z,14.92
2022-11-06T06:33:41.809Z,14.95
2022-11-06T06:36:10.710Z,14.91
2022-11-06T06:38:38.777Z,15.01
2022-11-06T06:41:09.556Z,15.07
2022-11-06T06:43:37.656Z,15.14
2022-11-06T06:46:07.704Z,15.16
2022-11-06T06:48:35.937Z,15.16
2022-11-06T06:51:04.895Z,15.12
2022-11-06T06:53:33.151Z,15.16
2022-11-06T06:56:01.827Z,15.15
2022-11-06T06:58:31.767Z,15.17
2022-11-06T07:01:02.304Z,15.24
2022-11-06T07:03:30.952Z,15.32
2022-11-06T07:05:59.712Z,15.32
2022-11-06T07:08:28.092Z,15.38
2022-11-06T07:11:00.080Z,15.33
2022-11-06T07:13:32.810Z,15.33
2022-11-06T07:16:05.801Z,15.32
2022-11-06T07:18:34.012Z,15.40
2022-11-06T07:21:02.057Z,15.39
2022-11-06T07:23:30.103Z,15.40
2022-11-06T07:25:58.280Z,15.51
2022-11-06T07:28:26.343Z,15.49
2022-11-06T07:30:58.498Z,15.54
2022-11-06T07:33:28.176Z,15.61
2022-11-06T07:35:56.258Z,15.48
2022-11-06T07:38:24.370Z,15.58
2022-11-06T07:40:52.372Z,15.63
2022-11-06T07:43:20.475Z,15.73
2022-11-06T07:45:48.537Z,15.84
2022-11-06T07:48:16.773Z,15.96
2022-11-06T07:50:46.328Z,15.96
2022-11-06T07:53:14.662Z,16.03
2022-11-06T07:55:49.645Z,15.99
2022-11-06T07:58:17.851Z,15.97
2022-11-06T08:00:48.759Z,15.92
2022-11-06T08:03:17.616Z,15.95
2022-11-06T08:05:47.088Z,15.88
2022-11-06T08:08:15.533Z,15.85
2022-11-06T08:10:44.621Z,15.95
2022-11-06T08:13:13.241Z,16.01
2022-11-06T08:15:42.846Z,16.04
2022-11-06T08:18:12.853Z,16.06
2022-11-06T08:20:41.550Z,16.07
2022-11-06T08:23:13.360Z,16.11
2022-11-06T08:25:41.992Z,16.14
2022-11-06T08:28:11.300Z,16.18
2022-11-06T08:30:39.548Z,16.15
2022-11-06T08:33:09.277Z,16.19
2022-11-06T08:35:37.685Z,16.14
2022-11-06T08:38:05.782Z,16.33
2022-11-06T08:40:37.284Z,16.33
2022-11-06T08:43:07.216Z,16.07
2022-11-06T08:45:38.288Z,16.11
2022-11-06T08:48:07.465Z,16.25
2022-11-06T08:50:40.277Z,16.60
2022-11-06T08:53:09.191Z,16.79
2022-11-06T08:55:50.578Z,16.91
2022-11-06T08:58:18.656Z,17.00
2022-11-06T09:00:46.885Z,17.01
2022-11-06T09:03:18.044Z,16.96
2022-11-06T09:05:46.865Z,16.89
2022-11-06T09:08:16.195Z,16.90
2022-11-06T09:10:45.912Z,16.87
2022-11-06T09:13:14.414Z,16.85
2022-11-06T09:15:42.915Z,16.98
2022-11-06T09:18:12.241Z,16.99
2022-11-06T09:20:42.780Z,16.99
2022-11-06T09:23:15.681Z,16.98
2022-11-06T09:25:45.453Z,16.92
2022-11-06T09:28:13.566Z,16.98
2022-11-06T09:30:41.592Z,17.02
2022-11-06T09:33:13.457Z,17.14
2022-11-06T09:35:42.580Z,17.31
2022-11-06T09:38:15.512Z,17.38
2022-11-06T09:40:50.791Z,17.36
2022-11-06T09:44:03.577Z,17.46
2022-11-06T09:46:25.743Z,17.51
2022-11-06T09:49:01.258Z,17.68
2022-11-06T09:51:35.720Z,17.76
2022-11-06T09:54:11.923Z,17.81
2022-11-06T09:56:43.234Z,17.88
2022-11-06T09:59:15.791Z,17.83
2022-11-06T10:01:47.282Z,18.00
2022-11-06T10:04:40.853Z,18.10
2022-11-06T10:07:24.268Z,18.05
2022-11-06T10:10:01.799Z,18.09
2022-11-06T10:12:41.109Z,18.17
2022-11-06T10:15:21.707Z,18.27
2022-11-06T10:18:01.476Z,18.57
2022-11-06T10:20:33.160Z,19.09
2022-11-06T10:23:06.916Z,19.52
2022-11-06T10:25:47.808Z,19.69
2022-11-06T10:28:29.857Z,19.92
2022-11-06T10:31:08.987Z,19.91
2022-11-06T10:33:50.932Z,19.90
2022-11-06T10:36:23.656Z,19.74
2022-11-06T10:38:53.918Z,19.57
2022-11-06T10:41:26.065Z,19.22
2022-11-06T10:44:00.748Z,19.11
2022-11-06T10:46:35.842Z,18.87
2022-11-06T10:49:07.758Z,18.81
2022-11-06T10:52:09.665Z,18.74
2022-11-06T10:54:51.420Z,18.73
2022-11-06T10:57:32.699Z,18.64
2022-11-06T11:00:02.457Z,18.62
2022-11-06T11:02:34.801Z,18.65
2022-11-06T11:05:03.207Z,18.56
2022-11-06T11:07:35.682Z,18.68
2022-11-06T11:10:28.195Z,18.65
2022-11-06T11:12:58.090Z,18.76
2022-11-06T11:15:29.219Z,18.76
2022-11-06T11:18:31.041Z,18.77
2022-11-06T11:21:16.530Z,18.93
2022-11-06T11:23:45.219Z,19.01
2022-11-06T11:26:24.201Z,19.20
2022-11-06T11:28:55.310Z,19.54
2022-11-06T11:31:30.960Z,19.77
2022-11-06T11:34:01.077Z,20.06
2022-11-06T11:36:49.058Z,20.17
2022-11-06T11:39:19.422Z,20.14
2022-11-06T11:41:47.757Z,20.01
2022-11-06T11:44:17.699Z,19.90
2022-11-06T11:46:49.983Z,19.80
2022-11-06T11:49:30.278Z,19.87
2022-11-06T11:52:00.073Z,19.90
2022-11-06T11:54:32.265Z,19.76
2022-11-06T11:57:06.688Z,19.84
2022-11-06T11:59:42.786Z,19.66
2022-11-06T12:02:25.248Z,19.63
2022-11-06T12:04:59.133Z,19.63
2022-11-06T12:07:30.387Z,19.68
2022-11-06T12:09:59.928Z,19.58
2022-11-06T12:12:32.113Z,19.60
2022-11-06T12:15:19.314Z,19.63
2022-11-06T12:17:54.281Z,19.70
2022-11-06T12:20:27.158Z,19.76
2022-11-06T12:22:57.414Z,19.70
2022-11-06T12:25:28.856Z,19.71
2022-11-06T12:28:01.022Z,19.58
2022-11-06T12:30:33.379Z,19.58
2022-11-06T12:33:11.587Z,19.40
2022-11-06T12:35:44.044Z,19.30
2022-11-06T12:38:20.887Z,19.43
2022-11-06T12:40:52.473Z,19.52
2022-11-06T12:43:27.766Z,19.52
2022-11-06T12:46:08.117Z,19.47
2022-11-06T12:48:50.397Z,19.52
2022-11-06T12:51:28.846Z,19.65
2022-11-06T12:54:09.203Z,19.87
2022-11-06T12:56:48.288Z,20.17
2022-11-06T12:59:30.491Z,20.64
2022-11-06T13:02:12.808Z,21.24
2022-11-06T13:04:53.288Z,21.09
2022-11-06T13:07:40.146Z,20.92
2022-11-06T13:10:25.358Z,20.73
2022-11-06T13:13:12.740Z,20.62
2022-11-06T13:15:53.900Z,20.55
2022-11-06T13:18:26.362Z,20.41
2022-11-06T13:21:02.353Z,20.21
2022-11-06T13:23:36.434Z,20.19
2022-11-06T13:26:10.892Z,20.15
2022-11-06T13:28:42.574Z,20.12
2022-11-06T13:31:15.238Z,20.06
2022-11-06T13:33:48.469Z,20.02
2022-11-06T13:36:19.822Z,19.88
2022-11-06T13:38:52.669Z,19.83
2022-11-06T13:41:23.445Z,19.80
2022-11-06T13:43:56.174Z,19.77
2022-11-06T13:46:32.844Z,19.79
2022-11-06T13:49:14.243Z,19.72
2022-11-06T13:51:51.839Z,19.74
2022-11-06T13:54:29.528Z,19.63
2022-11-06T13:57:40.439Z,19.57
2022-11-06T14:00:22.226Z,19.56
2022-11-06T14:03:26.313Z,19.45
2022-11-06T14:06:01.791Z,19.44
2022-11-06T14:08:34.651Z,19.45
2022-11-06T14:11:06.850Z,19.44
2022-11-06T14:13:37.009Z,19.30
2022-11-06T14:16:28.606Z,19.36
2022-11-06T14:18:59.085Z,19.40
2022-11-06T14:21:44.092Z,19.43
2022-11-06T14:24:28.090Z,19.40
2022-11-06T14:26:56.839Z,19.41
2022-11-06T14:29:57.947Z,19.41
2022-11-06T14:32:46.248Z,19.24
2022-11-06T14:35:51.950Z,19.11
2022-11-06T14:38:35.970Z,19.11
2022-11-06T14:41:48.077Z,19.00
2022-11-06T14:44:36.880Z,18.93
2022-11-06T14:47:08.619Z,18.71
2022-11-06T14:49:43.944Z,18.64
2022-11-06T14:52:15.124Z,18.69
2022-11-06T14:54:54.439Z,18.66
2022-11-06T14:57:41.262Z,18.68
2022-11-06T15:00:15.522Z,18.76
2022-11-06T15:02:45.003Z,18.68
2022-11-06T15:05:19.423Z,18.65
2022-11-06T15:08:05.911Z,18.61
2022-11-06T15:10:55.029Z,18.65
2022-11-06T15:13:31.209Z,18.55
2022-11-06T15:16:06.933Z,18.57
2022-11-06T15:18:37.586Z,18.57
2022-11-06T15:21:10.643Z,18.46
2022-11-06T15:23:43.763Z,18.26
2022-11-06T15:26:23.991Z,18.27
2022-11-06T15:29:10.368Z,18.17
2022-11-06T15:31:40.267Z,18.33
2022-11-06T15:34:16.323Z,18.22
2022-11-06T15:36:50.852Z,18.37
2022-11-06T15:39:34.266Z,18.39
2022-11-06T15:42:02.791Z,18.22
2022-11-06T15:44:32.429Z,18.28
2022-11-06T15:47:00.802Z,18.15
2022-11-06T15:49:29.343Z,18.10
2022-11-06T15:51:59.149Z,18.21
2022-11-06T15:54:38.481Z,18.26
2022-11-06T15:57:14.700Z,18.24
2022-11-06T15:59:44.588Z,18.14
2022-11-06T16:02:19.708Z,18.12
2022-11-06T16:04:48.797Z,18.12
2022-11-06T16:07:19.276Z,18.10
2022-11-06T16:09:48.603Z,18.17
2022-11-06T16:12:19.481Z,17.98
2022-11-06T16:14:49.239Z,17.91
2022-11-06T16:17:23.403Z,17.93
2022-11-06T16:19:54.441Z,17.91
2022-11-06T16:22:30.167Z,18.04
2022-11-06T16:25:00.974Z,17.91
2022-11-06T16:27:33.983Z,17.79
2022-11-06T16:30:04.054Z,17.92
2022-11-06T16:32:37.943Z,17.76
2022-11-06T16:35:33.185Z,17.72
2022-11-06T16:38:45.312Z,17.60
2022-11-06T16:41:35.369Z,17.60
2022-11-06T16:44:31.297Z,17.55
2022-11-06T16:47:15.851Z,17.53
2022-11-06T16:49:50.221Z,17.58
2022-11-06T16:52:25.867Z,17.72
2022-11-06T16:54:56.229Z,17.73
2022-11-06T16:57:27.177Z,17.73
2022-11-06T16:59:58.315Z,17.69
2022-11-06T17:02:30.608Z,17.46
2022-11-06T17:05:15.050Z,17.24
2022-11-06T17:07:44.102Z,17.43
2022-11-06T17:10:42.728Z,17.44
2022-11-06T17:13:15.912Z,17.36
2022-11-06T17:15:45.901Z,17.36
2022-11-06T17:18:19.348Z,17.34
2022-11-06T17:20:51.613Z,17.29
2022-11-06T17:23:19.773Z,16.98
2022-11-06T17:25:48.747Z,16.80
2022-11-06T17:28:18.920Z,16.75
2022-11-06T17:30:48.289Z,16.55
2022-11-06T17:33:17.955Z,16.42
2022-11-06T17:35:47.874Z,16.40
2022-11-06T17:38:16.664Z,16.26
2022-11-06T17:40:45.786Z,16.22
2022-11-06T17:43:14.080Z,16.07
2022-11-06T17:45:47.770Z,15.84
2022-11-06T17:48:17.646Z,15.55
2022-11-06T17:51:02.915Z,15.38
2022-11-06T17:53:30.986Z,15.11
2022-11-06T17:55:58.983Z,14.94
2022-11-06T17:58:26.981Z,14.95
2022-11-06T18:00:56.852Z,14.98
2022-11-06T18:03:35.315Z,14.99
2022-11-06T18:06:04.595Z,14.99
2022-11-06T18:08:32.694Z,14.92
2022-11-06T18:11:00.819Z,14.74
2022-11-06T18:13:28.832Z,14.75
2022-11-06T18:15:57.050Z,14.71
2022-11-06T18:18:25.086Z,14.71
2022-11-06T18:20:54.463Z,14.40
2022-11-06T18:23:22.604Z,14.47
2022-11-06T18:25:57.739Z,14.54
2022-11-06T18:28:26.732Z,14.49
2022-11-06T18:30:55.065Z,14.43
2022-11-06T18:33:23.044Z,14.32
2022-11-06T18:35:52.177Z,14.37
2022-11-06T18:38:21.603Z,14.30
2022-11-06T18:40:51.743Z,14.18
2022-11-06T18:43:20.019Z,14.20
2022-11-06T18:45:48.039Z,14.14
2022-11-06T18:48:21.035Z,14.14
2022-11-06T18:50:49.486Z,14.13
2022-11-06T18:53:17.524Z,14.19
2022-11-06T18:55:47.169Z,14.22
2022-11-06T18:58:15.815Z,14.24
2022-11-06T19:00:44.121Z,14.22
2022-11-06T19:03:12.945Z,14.09
2022-11-06T19:05:47.516Z,14.11
2022-11-06T19:08:16.440Z,14.04
2022-11-06T19:10:46.081Z,14.08
2022-11-06T19:13:14.193Z,14.13
2022-11-06T19:15:42.933Z,14.25
2022-11-06T19:18:11.388Z,14.30
2022-11-06T19:20:40.910Z,14.36
2022-11-06T19:23:09.208Z,14.14
2022-11-06T19:25:40.576Z,14.04
2022-11-06T19:28:10.737Z,14.07
2022-11-06T19:30:38.904Z,14.19
2022-11-06T19:33:06.933Z,13.90
2022-11-06T19:35:34.981Z,14.07
2022-11-06T19:38:03.076Z,13.96
2022-11-06T19:40:31.058Z,13.99
2022-11-06T19:42:59.682Z,14.05
2022-11-06T19:45:29.357Z,13.98
2022-11-06T19:47:57.398Z,13.95
2022-11-06T19:50:53.648Z,13.94
2022-11-06T19:53:17.660Z,13.83
2022-11-06T19:55:45.685Z,13.93
2022-11-06T19:58:13.852Z,14.03
2022-11-06T20:00:43.377Z,13.88
2022-11-06T20:03:13.863Z,14.01
2022-11-06T20:05:42.879Z,13.95
2022-11-06T20:08:11.280Z,14.01
2022-11-06T20:10:41.203Z,13.97
2022-11-06T20:13:09.555Z,14.04
2022-11-06T20:15:37.605Z,14.03
2022-11-06T20:18:07.101Z,14.01
2022-11-06T20:20:36.537Z,14.14
2022-11-06T20:23:04.881Z,14.05
2022-11-06T20:25:33.064Z,14.05
2022-11-06T20:28:01.169Z,14.00
2022-11-06T20:30:29.201Z,14.12
2022-11-06T20:32:57.242Z,14.19
2022-11-06T20:35:26.971Z,14.10
2022-11-06T20:37:55.021Z,14.06
2022-11-06T20:40:23.119Z,14.03
2022-11-06T20:42:51.309Z,14.06
2022-11-06T20:45:19.388Z,13.93
2022-11-06T20:47:47.409Z,13.84
2022-11-06T20:50:15.628Z,13.74
2022-11-06T20:52:45.469Z,13.76
2022-11-06T20:55:13.543Z,13.69
2022-11-06T20:57:41.525Z,13.64
2022-11-06T21:00:10.713Z,13.67
2022-11-06T21:02:38.836Z,13.76
2022-11-06T21:05:07.345Z,13.76
2022-11-06T21:07:35.938Z,13.82
2022-11-06T21:10:06.276Z,13.83
2022-11-06T21:12:34.433Z,13.92
2022-11-06T21:15:02.470Z,13.88
2022-11-06T21:17:30.545Z,13.74
2022-11-06T21:19:58.665Z,13.69
2022-11-06T21:22:26.713Z,13.98
2022-11-06T21:24:54.720Z,14.01
2022-11-06T21:27:24.177Z,13.90
2022-11-06T21:29:52.227Z,13.93
2022-11-06T21:32:20.253Z,14.03
2022-11-06T21:34:48.257Z,14.13
2022-11-06T21:37:16.305Z,14.07
2022-11-06T21:39:44.411Z,14.18
2022-11-06T21:42:12.636Z,14.13
2022-11-06T21:44:42.177Z,14.19
2022-11-06T21:47:10.241Z,14.05
2022-11-06T21:49:38.247Z,14.24
2022-11-06T21:52:22.838Z,14.29
2022-11-06T21:55:10.290Z,14.36
2022-11-06T21:57:38.309Z,14.49
2022-11-06T22:00:12.921Z,14.40
2022-11-06T22:02:43.165Z,14.58
2022-11-06T22:05:11.484Z,14.39
2022-11-06T22:07:39.506Z,14.50
2022-11-06T22:10:08.745Z,14.58
2022-11-06T22:12:36.938Z,14.59
2022-11-06T22:15:05.620Z,14.63
2022-11-06T22:17:35.020Z,14.63
2022-11-06T22:20:03.343Z,14.68
2022-11-06T22:22:31.373Z,14.71
2022-11-06T22:24:59.591Z,14.60
2022-11-06T22:27:27.608Z,14.73
2022-11-06T22:29:55.665Z,14.83
2022-11-06T22:32:23.841Z,14.95
2022-11-06T22:34:53.260Z,15.02
2022-11-06T22:37:21.475Z,14.94
2022-11-06T22:39:49.957Z,14.87
2022-11-06T22:42:18.225Z,14.95
2022-11-06T22:44:46.576Z,15.06
2022-11-06T22:47:14.948Z,15.11
2022-11-06T22:49:43.195Z,15.09
2022-11-06T22:52:12.873Z,15.08
2022-11-06T22:54:41.222Z,15.14
2022-11-06T22:57:09.524Z,15.03
2022-11-06T22:59:37.831Z,15.04
2022-11-06T23:02:06.157Z,15.33
2022-11-06T23:04:35.779Z,15.32
2022-11-06T23:07:04.048Z,15.12
2022-11-06T23:09:33.735Z,15.29
2022-11-06T23:12:02.067Z,15.26
2022-11-06T23:14:31.269Z,15.27
2022-11-06T23:17:00.831Z,15.14
2022-11-06T23:19:31.194Z,15.33
2022-11-06T23:22:17.316Z,15.31
2022-11-06T23:24:47.225Z,15.41
2022-11-06T23:27:15.758Z,15.48
2022-11-06T23:29:45.240Z,15.51
2022-11-06T23:32:13.865Z,15.47
2022-11-06T23:34:42.159Z,15.39
2022-11-06T23:37:10.655Z,15.49
2022-11-06T23:39:38.950Z,15.60
2022-11-06T23:42:08.578Z,15.51
2022-11-06T23:44:54.090Z,15.48
2022-11-06T23:47:22.323Z,15.63
2022-11-06T23:49:50.643Z,15.49
2022-11-06T23:52:19.006Z,15.55
2022-11-06T23:54:47.364Z,15.68
2022-11-06T23:57:17.064Z,15.69
2022-11-06T23:59:45.389Z,15.86
